Latest Weather Observations for Middle Percy Island

IDQ60801

Issued at 5:32 am EST Wednesday 8 April 2020 (issued every 10 minutes, with the page automatically refreshed every 10 minutes)

About weather observations | Map of weather stations | Latest weather observations for QLD | Other Formats
Station Details ID: 200001 Name: MIDDLE PERCY ISLAND Lat: -21.66 Lon: 150.27 Height: 208.7 m
Data from the previous 72 hours. | See also: Recent months at Middle Percy Island
Date/Time
EST
Temp
°C
App
Temp
°C
Dew
Point
°C
Rel
Hum
%
Delta-T
°C
Wind Press
QNH
hPa
Press
MSL
hPa
Rain since
9am
mm
Dir  Spd
km/h
Gust
km/h
Spd
kts
Gust
kts
08/05:30am 23.4 21.4 17.4 69 3.7 SE 24 37 13 20 1015.0 1014.0 0.0
08/05:00am 23.6 21.7 17.6 69 3.8 ESE 24 39 13 21 1014.7 1013.7 0.0
08/04:30am 23.6 20.3 16.9 66 4.2 SE 30 41 16 22 1014.5 1013.5 0.0
08/04:00am 23.6 20.4 17.3 67 3.9 SE 30 43 16 23 1014.4 1013.4 0.0
08/03:30am 23.6 21.2 17.3 67 3.9 SE 26 41 14 22 1014.4 1013.4 0.0
08/03:00am 23.7 21.7 17.4 68 3.9 ESE 24 37 13 20 1014.5 1013.5 0.0
08/02:30am 23.6 21.6 17.3 67 3.9 ESE 24 41 13 22 1014.7 1013.7 0.0
08/02:00am 23.7 22.1 17.4 68 3.9 ESE 22 39 12 21 1014.9 1013.9 0.0
08/01:30am 23.8 22.5 17.3 67 4.1 SE 20 30 11 16 1015.2 1014.2 0.0
08/01:00am 23.7 21.7 16.5 64 4.4 ESE 22 32 12 17 1015.4 1014.3 0.0
08/12:30am 23.6 21.9 17.1 67 4.0 SE 22 35 12 19 1015.5 1014.4 0.0
08/12:00am 23.5 21.5 16.5 65 4.3 SE 22 32 12 17 1015.6 1014.5 0.0
 
Date/Time
EST
Temp
°C
App
Temp
°C
Dew
Point
°C
Rel
Hum
%
Delta-T
°C
Wind Press
QNH
hPa
Press
MSL
hPa
Rain since
9am
mm
Dir  Spd
km/h
Gust
km/h
Spd
kts
Gust
kts
07/11:30pm 23.6 20.8 16.4 64 4.4 SE 26 33 14 18 1015.8 1014.7 0.0
07/11:00pm 23.6 20.3 16.1 62 4.6 SE 28 41 15 22 1016.0 1014.9 0.0
07/10:30pm 23.9 20.3 17.2 66 4.2 SE 32 43 17 23 1016.2 1015.1 0.0
07/10:00pm 24.0 21.0 17.7 68 4.0 SE 30 41 16 22 1016.3 1015.2 0.0
07/09:30pm 23.6 21.4 18.7 74 3.1 SSE 28 37 15 20 1016.1 1015.0 0.0
07/09:00pm 23.5 20.8 18.4 73 3.2 SE 30 39 16 21 1016.1 1015.0 0.0
07/08:30pm 23.5 20.8 18.4 73 3.2 SSE 30 43 16 23 1015.8 1014.7 0.0
07/08:00pm 23.4 20.2 18.1 72 3.3 SSE 32 43 17 23 1015.7 1014.6 0.0
07/07:30pm 23.4 21.2 18.7 75 3.0 SSE 28 39 15 21 1015.4 1014.3 0.0
07/07:00pm 23.2 20.9 18.5 75 3.0 SSE 28 46 15 25 1015.1 1014.1 0.0
07/06:30pm 23.2 20.8 18.3 74 3.1 SE 28 39 15 21 1014.7 1013.7 0.0
07/06:00pm 23.3 20.4 18.8 76 2.9 SSE 32 44 17 24 1014.5 1013.5 0.0
07/05:30pm 23.4 20.2 18.7 75 3.0 SSE 33 43 18 23 1014.3 1013.3 0.0
07/05:00pm 24.0 22.3 18.9 73 3.3 SSE 26 43 14 23 1014.3 1013.3 0.0
07/04:30pm 24.3 22.2 18.9 72 3.5 SSE 28 37 15 20 1014.1 1013.1 0.0
07/04:00pm 24.1 21.4 18.5 71 3.6 SSE 30 37 16 20 1013.9 1012.9 0.0
07/03:30pm 25.0 23.0 18.4 66 4.2 SSE 26 35 14 19 1014.0 1013.0 0.0
07/03:00pm 25.3 23.6 18.0 64 4.6 SSE 24 35 13 19 1013.8 1012.8 0.0
07/02:30pm 25.6 22.2 16.7 58 5.5 SSE 30 39 16 21 1013.9 1012.9 0.0
07/02:00pm 25.8 23.0 16.4 56 5.8 SSE 26 41 14 22 1014.0 1013.0 0.0
07/01:30pm 25.6 21.5 16.5 57 5.7 SSE 33 48 18 26 1014.4 1013.4 0.0
07/01:00pm 26.1 23.0 16.6 55 5.9 SE 28 46 15 25 1014.7 1013.7 0.0
07/12:30pm 25.9 23.3 17.8 61 5.1 SSE 28 41 15 22 1015.0 1014.0 0.0
07/12:00pm 26.3 24.0 17.6 58 5.5 SSE 26 37 14 20 1015.6 1014.5 0.0
07/11:30am 26.0 23.3 17.6 60 5.3 SSE 28 41 15 22 1015.9 1014.8 0.0
07/11:00am 25.3 23.2 18.0 64 4.6 SSE 26 33 14 18 1016.4 1015.3 0.0
07/10:30am 25.5 22.7 17.4 61 5.1 SSE 28 37 15 20 1016.7 1015.6 0.0
07/10:00am 25.4 22.6 16.3 57 5.6 SSE 26 39 14 21 1016.8 1015.7 0.0
07/09:30am 24.9 22.0 17.1 62 4.9 SE 28 35 15 19 1016.9 1015.8 0.0
07/09:00am 25.0 22.4 15.9 57 5.6 SSE 24 35 13 19 1016.7 1015.6 0.0
07/08:30am 24.0 21.2 16.3 62 4.7 SE 26 35 14 19 1016.5 1015.4 0.0
07/08:00am 24.4 22.1 16.6 61 4.8 SSE 24 32 13 17 1016.1 1015.0 0.0
07/07:30am 23.9 21.5 16.4 63 4.6 SE 24 33 13 18 1015.8 1014.7 0.0
07/07:00am 23.6 20.9 16.6 65 4.3 SE 26 35 14 19 1015.4 1014.3 0.0
07/06:30am 23.2 21.0 17.0 68 3.8 SE 24 39 13 21 1014.8 1013.8 0.0
07/06:00am 23.3 21.6 17.3 69 3.7 SE 22 33 12 18 1014.5 1013.5 0.0
07/05:30am 23.3 21.7 17.5 70 3.6 SE 22 33 12 18 1014.3 1013.3 0.0
07/05:00am 23.2 22.1 17.7 71 3.4 SE 20 30 11 16 1014.0 1013.0 0.0
07/04:30am 23.2 21.0 17.0 68 3.8 SE 24 33 13 18 1013.8 1012.8 0.0
07/04:00am 23.5 21.5 17.5 69 3.8 SE 24 33 13 18 1013.8 1012.8 0.0
07/03:30am 23.2 21.8 17.0 68 3.8 SE 20 33 11 18 1013.9 1012.9 0.0
07/03:00am 23.6 22.2 17.1 67 4.0 SE 20 28 11 15 1014.0 1013.0 0.0
07/02:30am 23.6 22.5 17.8 70 3.6 SE 20 30 11 16 1014.2 1013.2 0.0
07/02:00am 23.6 22.6 18.0 71 3.5 SE 20 28 11 15 1014.3 1013.3 0.0
07/01:30am 23.7 22.8 18.1 71 3.5 SE 20 30 11 16 1014.6 1013.6 0.0
07/01:00am 23.9 23.2 18.3 71 3.6 SE 19 26 10 14 1014.9 1013.9 0.0
07/12:30am 24.1 24.0 18.7 72 3.5 SE 17 22 9 12 1015.1 1014.1 0.0
07/12:00am 23.8 23.9 18.4 72 3.4 SE 15 24 8 13 1015.2 1014.2 0.0
 
Date/Time
EST
Temp
°C
App
Temp
°C
Dew
Point
°C
Rel
Hum
%
Delta-T
°C
Wind Press
QNH
hPa
Press
MSL
hPa
Rain since
9am
mm
Dir  Spd
km/h
Gust
km/h
Spd
kts
Gust
kts
06/11:30pm 24.1 24.3 19.4 75 3.0 SE 17 24 9 13 1015.2 1014.2 0.0
06/11:00pm 24.0 24.4 19.9 78 2.7 ESE 17 24 9 13 1015.4 1014.3 0.0
06/10:30pm 24.0 24.9 20.1 79 2.5 ESE 15 20 8 11 1015.6 1014.5 0.0
06/10:00pm 24.0 25.8 20.3 80 2.4 ESE 11 19 6 10 1015.8 1014.7 0.0
06/09:30pm 24.1 25.8 20.2 79 2.5 ESE 11 22 6 12 1015.8 1014.7 0.0
06/09:00pm 24.2 25.0 19.9 77 2.8 ESE 15 22 8 12 1015.8 1014.7 0.0
06/08:30pm 24.1 24.4 18.7 72 3.5 ESE 15 24 8 13 1015.7 1014.6 0.0
06/08:00pm 24.0 24.9 19.3 75 3.0 ESE 13 22 7 12 1015.6 1014.5 0.0
06/07:30pm 23.9 24.3 19.8 78 2.7 ESE 17 28 9 15 1015.2 1014.2 0.0
06/07:00pm 23.7 23.7 20.2 81 2.3 ESE 20 28 11 15 1014.9 1013.9 0.0
06/06:30pm 24.1 23.9 19.8 77 2.8 ESE 20 30 11 16 1014.6 1013.6 0.0
06/06:00pm 24.3 23.7 18.9 72 3.5 ESE 20 30 11 16 1014.4 1013.4 0.0
06/05:30pm 24.6 23.9 17.3 64 4.6 ESE 17 24 9 13 1014.1 1013.1 0.0
06/05:00pm 25.1 25.5 18.1 65 4.4 ESE 13 19 7 10 1013.9 1012.9 0.0
06/04:30pm 25.5 25.8 18.7 66 4.4 ESE 15 22 8 12 1013.7 1012.7 0.0
06/04:00pm 25.7 25.4 19.1 67 4.3 ESE 19 26 10 14 1013.5 1012.4 0.0
06/03:30pm 25.6 24.1 17.8 62 4.9 SE 22 32 12 17 1013.4 1012.3 0.0
06/03:00pm 25.6 24.6 18.8 66 4.4 SE 22 33 12 18 1013.5 1012.4 0.0
06/02:30pm 26.0 25.6 19.4 67 4.3 SE 20 30 11 16 1013.6 1012.6 0.0
06/02:00pm 25.8 24.6 19.2 67 4.3 SSE 24 32 13 17 1013.8 1012.8 0.0
06/01:30pm 25.9 25.3 19.8 69 4.0 SSE 22 35 12 19 1014.3 1013.3 0.0
06/01:00pm 25.4 26.0 21.3 78 2.7 SE 20 32 11 17 1014.9 1013.9 0.0
06/12:30pm 25.1 25.2 21.2 79 2.6 SSE 22 30 12 16 1015.4 1014.3 0.0
06/12:00pm 25.6 25.8 21.3 77 2.9 SSE 22 30 12 16 1015.8 1014.7 0.0
06/11:30am 24.9 24.3 21.2 80 2.5 SSE 26 35 14 19 1016.2 1015.1 0.0
06/11:00am 24.4 23.7 21.1 82 2.2 SSE 26 35 14 19 1016.3 1015.2 0.0
06/10:30am 24.6 24.2 20.9 80 2.4 SSE 24 35 13 19 1016.5 1015.4 0.0
06/10:00am 24.8 25.1 21.5 82 2.2 SSE 22 30 12 16 1016.6 1015.5 0.0
06/09:30am 24.2 24.7 21.1 83 2.1 S 20 30 11 16 1016.6 1015.5 0.0
06/09:00am 25.3 26.4 22.0 82 2.2 SSE 19 26 10 14 1016.5 1015.4 0.0
06/08:30am 24.3 24.7 21.8 86 1.7 SSE 22 28 12 15 1016.3 1015.2 0.0
06/08:00am 24.2 25.3 22.3 89 1.3 SSE 20 30 11 16 1016.1 1015.0 0.0
06/07:30am 23.8 24.0 22.1 90 1.1 SSE 24 32 13 17 1015.9 1014.8 0.0
06/07:00am 23.7 24.8 22.3 92 0.9 S 20 28 11 15 1015.7 1014.6 0.0
06/06:30am 23.9 25.0 22.3 91 1.1 S 20 28 11 15 1015.0 1014.0 0.0
06/06:00am 23.9 26.2 22.0 89 1.3 S 13 24 7 13 1014.7 1013.7 0.0
06/05:30am 23.5 25.8 21.4 88 1.4 S 11 13 6 7 1014.6 1013.6 0.0
06/05:00am 23.6 26.0 21.5 88 1.4 SE 11 15 6 8 1014.3 1013.3 0.0
06/04:30am 23.5 26.1 21.2 87 1.5 ESE 9 13 5 7 1014.1 1013.1 0.0
06/04:00am 23.9 26.6 21.4 86 1.7 ESE 9 13 5 7 1013.9 1012.9 0.0
06/03:30am 23.7 26.3 21.2 86 1.7 ESE 9 15 5 8 1013.6 1012.6 0.0
06/03:00am 23.9 26.6 21.4 86 1.7 E 9 13 5 7 1013.7 1012.7 0.0
06/02:30am 24.1 27.4 21.8 87 1.5 ESE 7 11 4 6 1013.9 1012.9 0.0
06/02:00am 24.1 27.7 22.0 88 1.4 ESE 6 9 3 5 1014.0 1013.0 0.0
06/01:30am 24.2 27.4 22.3 89 1.3 E 9 17 5 9 1013.9 1012.9 0.0
06/01:00am 24.1 26.5 22.2 89 1.3 ENE 13 17 7 9 1013.9 1012.9 0.0
06/12:30am 24.3 26.3 22.2 88 1.4 ENE 15 22 8 12 1014.2 1013.2 0.0
06/12:00am 24.4 26.1 21.7 85 1.8 E 15 20 8 11 1014.4 1013.4 0.0
 
Date/Time
EST
Temp
°C
App
Temp
°C
Dew
Point
°C
Rel
Hum
%
Delta-T
°C
Wind Press
QNH
hPa
Press
MSL
hPa
Rain since
9am
mm
Dir  Spd
km/h
Gust
km/h
Spd
kts
Gust
kts
05/11:30pm 24.1 26.5 21.6 86 1.7 E 11 19 6 10 1014.6 1013.6 0.0
05/11:00pm 24.0 26.9 21.7 87 1.5 E 9 20 5 11 1014.8 1013.8 0.0
05/10:30pm 24.1 26.7 22.0 88 1.4 E 11 17 6 9 1015.1 1014.1 0.0
05/10:00pm 24.1 26.1 21.6 86 1.7 ESE 13 22 7 12 1015.2 1014.2 0.0
05/09:30pm 24.2 25.7 21.3 84 1.9 ESE 15 24 8 13 1015.4 1014.3 0.0
05/09:00pm 24.0 25.1 21.3 85 1.8 ESE 17 24 9 13 1015.1 1014.1 0.0
05/08:30pm 24.1 25.1 21.8 87 1.5 ESE 19 30 10 16 1015.1 1014.1 0.0
05/08:00pm 24.3 25.2 22.0 87 1.5 ESE 20 30 11 16 1014.8 1013.8 0.0
05/07:30pm 24.5 25.4 22.0 86 1.7 ESE 20 30 11 16 1014.5 1013.5 0.0
05/07:00pm 24.7 26.6 22.8 89 1.3 ESE 17 26 9 14 1014.2 1013.2 0.0
05/06:30pm 24.6 26.4 22.5 88 1.4 ESE 17 24 9 13 1013.6 1012.6 0.0
05/06:00pm 24.6 26.9 22.1 86 1.7 ESE 13 19 7 10 1013.2 1012.1 0.0
05/05:30pm 25.1 27.6 21.8 82 2.2 ESE 11 17 6 9 1012.8 1011.7 0.0
05/05:00pm 25.6 27.6 21.5 78 2.7 ESE 13 20 7 11 1012.7 1011.6 0.0
05/04:30pm 26.1 28.2 21.7 77 3.0 ESE 13 17 7 9 1012.4 1011.3 0.0
05/04:00pm 26.4 29.2 22.3 78 2.8 SE 11 17 6 9 1012.4 1011.3 0.0
05/03:30pm 26.7 28.8 21.0 71 3.8 ESE 11 17 6 9 1012.2 1011.1 0.0
05/03:00pm 26.5 28.1 21.5 74 3.4 ESE 15 20 8 11 1012.2 1011.1 0.0
05/02:30pm 27.1 29.6 22.5 76 3.1 ESE 13 20 7 11 1012.4 1011.3 0.0
05/02:00pm 27.1 29.0 22.1 74 3.4 SSE 15 22 8 12 1012.7 1011.6 0.0
05/01:30pm 26.1 28.0 22.0 78 2.8 SSE 15 22 8 12 1013.0 1011.9 0.0
05/01:00pm 27.0 29.6 23.3 80 2.5 S 15 20 8 11 1013.1 1012.0 0.0
05/12:30pm 26.5 28.3 21.9 76 3.1 S 15 20 8 11 1013.6 1012.6 0.0
05/12:00pm 26.5 29.1 22.6 79 2.7 S 13 17 7 9 1014.0 1013.0 0.0
05/11:30am 26.7 28.4 22.3 77 3.0 S 17 20 9 11 1014.2 1013.2 0.0
05/11:00am 27.2 29.2 23.0 78 2.9 SSW 17 24 9 13 1014.4 1013.4 0.0
05/10:30am 26.6 28.2 22.2 77 3.0 S 17 22 9 12 1014.5 1013.5 0.0
05/10:00am 26.3 28.3 21.5 75 3.2 S 13 17 7 9 1014.8 1013.8 0.0
05/09:30am 26.1 28.6 21.7 77 3.0 SSW 11 15 6 8 1014.8 1013.8 0.0
05/09:00am 25.6 28.1 21.7 79 2.6 SSW 11 15 6 8 1014.9 1013.9 0.0
05/08:30am 25.8 29.1 21.9 79 2.6 SSW 7 13 4 7 1014.7 1013.7 0.0
05/08:00am 25.1 28.6 21.8 82 2.2 SSW 6 9 3 5 1014.4 1013.4 0.0
05/07:30am 24.9 28.7 21.6 82 2.2 SW 4 7 2 4 1014.2 1013.2 0.0
05/07:00am 24.3 28.4 21.6 85 1.8 WSW 2 4 1 2 1013.8 1012.8 0.0
05/06:30am 23.8 27.0 21.3 86 1.7 NW 6 7 3 4 1013.4 1012.3 0.0
05/06:00am 23.4 26.5 21.5 89 1.3 NNW 7 9 4 5 1012.9 1011.8 0.0

Other formats

Comma delimited format used in spreadsheet applications
http://www.bom.gov.au/fwo/IDQ60801/IDQ60801.94372.axf

JavaScript Object Notation format (JSON) in row-major order
http://www.bom.gov.au/fwo/IDQ60801/IDQ60801.94372.json

Data quality

Most of these data are generated automatically and are frequently updated. Quality checks on data are not normally performed. It is possible for incorrect values to appear. Refer to information at About Latest Weather Observations and please check the disclaimer before using these data.